createdAt,value
2016-08-23T00:00:22.299Z,15.35
2016-08-23T00:01:35.291Z,15.33
2016-08-23T00:02:48.473Z,15.33
2016-08-23T00:04:01.451Z,15.33
2016-08-23T00:05:14.437Z,15.33
2016-08-23T00:06:27.456Z,15.31
2016-08-23T00:07:40.452Z,15.26
2016-08-23T00:08:53.429Z,15.31
2016-08-23T00:10:06.605Z,15.22
2016-08-23T00:11:19.595Z,15.25
2016-08-23T00:12:32.590Z,15.26
2016-08-23T00:13:45.713Z,15.23
2016-08-23T00:14:58.689Z,15.23
2016-08-23T00:16:11.680Z,15.23
2016-08-23T00:17:24.657Z,15.27
2016-08-23T00:18:37.638Z,15.16
2016-08-23T00:19:50.818Z,15.2
2016-08-23T00:21:03.799Z,15.13
2016-08-23T00:22:16.791Z,15.19
2016-08-23T00:23:29.768Z,15.15
2016-08-23T00:24:42.752Z,15.2
2016-08-23T00:25:55.736Z,15.19
2016-08-23T00:27:08.718Z,15.18
2016-08-23T00:28:21.719Z,15.07
2016-08-23T00:29:34.699Z,15.13
2016-08-23T00:30:47.669Z,15.13
2016-08-23T00:32:00.650Z,15.08
2016-08-23T00:33:13.836Z,15.16
2016-08-23T00:34:26.816Z,15.16
2016-08-23T00:35:39.798Z,15.19
2016-08-23T00:36:52.978Z,15.22
2016-08-23T00:38:05.954Z,15.23
2016-08-23T00:39:19.342Z,15.19
2016-08-23T00:40:32.529Z,15.23
2016-08-23T00:41:45.505Z,15.22
2016-08-23T00:42:58.481Z,15.16
2016-08-23T00:44:11.459Z,15.19
2016-08-23T00:45:24.441Z,15.19
2016-08-23T00:46:37.419Z,15.26
2016-08-23T00:47:50.406Z,15.18
2016-08-23T00:49:03.380Z,15.23
2016-08-23T00:50:16.358Z,15.23
2016-08-23T00:51:29.343Z,15.3
2016-08-23T00:52:42.528Z,15.26
2016-08-23T00:53:55.508Z,15.25
2016-08-23T00:55:08.485Z,15.26
2016-08-23T00:56:21.464Z,15.37
2016-08-23T00:57:34.442Z,15.34
2016-08-23T00:58:47.421Z,15.31
2016-08-23T01:00:00.400Z,15.35
2016-08-23T01:01:13.379Z,15.47
2016-08-23T01:02:26.365Z,15.44
2016-08-23T01:03:39.352Z,15.49
2016-08-23T01:04:52.327Z,15.52
2016-08-23T01:06:05.520Z,15.53
2016-08-23T01:07:18.502Z,15.56
2016-08-23T01:08:31.482Z,15.52
2016-08-23T01:09:44.456Z,15.51
2016-08-23T01:10:57.438Z,15.56
2016-08-23T01:12:10.414Z,15.56
2016-08-23T01:13:23.607Z,15.53
2016-08-23T01:14:36.633Z,15.63
2016-08-23T01:15:49.619Z,15.55
2016-08-23T01:17:02.603Z,15.51
2016-08-23T01:18:15.585Z,15.59
2016-08-23T01:19:28.572Z,15.65
2016-08-23T01:20:41.552Z,15.65
2016-08-23T01:21:54.535Z,15.63
2016-08-23T01:23:07.508Z,15.63
2016-08-23T01:24:20.492Z,15.71
2016-08-23T01:25:33.509Z,15.73
2016-08-23T01:26:46.690Z,15.75
2016-08-23T01:27:59.673Z,15.7
2016-08-23T01:29:12.645Z,15.75
2016-08-23T01:30:25.639Z,15.81
2016-08-23T01:31:38.623Z,15.7
2016-08-23T01:32:51.803Z,15.81
2016-08-23T01:34:04.790Z,15.84
2016-08-23T01:35:17.772Z,15.88
2016-08-23T01:36:30.759Z,15.89
2016-08-23T01:37:43.748Z,15.91
2016-08-23T01:38:56.742Z,15.81
2016-08-23T01:40:09.734Z,15.86
2016-08-23T01:41:22.717Z,15.84
2016-08-23T01:42:35.690Z,15.95
2016-08-23T01:43:48.878Z,15.92
2016-08-23T01:45:01.882Z,15.95
2016-08-23T01:46:14.861Z,15.92
2016-08-23T01:47:27.850Z,15.95
2016-08-23T01:48:40.839Z,15.96
2016-08-23T01:49:53.822Z,15.96
2016-08-23T01:51:06.800Z,15.99
2016-08-23T01:52:19.780Z,15.98
2016-08-23T01:53:32.762Z,16.07
2016-08-23T01:54:45.741Z,16.04
2016-08-23T01:55:58.725Z,16.07
2016-08-23T01:57:11.697Z,16.11
2016-08-23T01:58:24.691Z,16.08
2016-08-23T01:59:37.876Z,16.14
2016-08-23T02:00:50.854Z,16.07
2016-08-23T02:02:03.834Z,16.11
2016-08-23T02:03:16.818Z,16.11
2016-08-23T02:04:29.796Z,16.14
2016-08-23T02:05:42.769Z,16.17
2016-08-23T02:06:55.753Z,16.17
2016-08-23T02:08:08.732Z,16.18
2016-08-23T02:09:21.917Z,16.16
2016-08-23T02:10:34.891Z,16.18
2016-08-23T02:11:47.874Z,16.27
2016-08-23T02:13:00.850Z,16.3
2016-08-23T02:14:14.034Z,16.27
2016-08-23T02:15:27.080Z,16.25
2016-08-23T02:16:40.057Z,16.17
2016-08-23T02:17:53.039Z,16.21
2016-08-23T02:19:06.015Z,16.27
2016-08-23T02:20:19.007Z,16.25
2016-08-23T02:21:32.004Z,16.25
2016-08-23T02:22:44.991Z,16.25
2016-08-23T02:23:57.971Z,16.25
2016-08-23T02:25:10.950Z,16.3
2016-08-23T02:26:23.923Z,16.33
2016-08-23T02:27:37.108Z,16.32
2016-08-23T02:28:50.092Z,16.29
2016-08-23T02:30:03.479Z,16.33
2016-08-23T02:31:16.664Z,16.36
2016-08-23T02:32:29.652Z,16.42
2016-08-23T02:33:42.635Z,16.32
2016-08-23T02:34:55.614Z,16.32
2016-08-23T02:36:08.599Z,16.37
2016-08-23T02:37:21.799Z,16.33
2016-08-23T02:38:34.789Z,16.33
2016-08-23T02:39:47.777Z,16.42
2016-08-23T02:41:00.763Z,16.36
2016-08-23T02:42:13.745Z,16.39
2016-08-23T02:43:26.929Z,16.37
2016-08-23T02:44:39.911Z,16.33
2016-08-23T02:45:52.887Z,16.36
2016-08-23T02:47:05.869Z,16.42
2016-08-23T02:48:18.843Z,16.37
2016-08-23T02:49:31.833Z,16.4
2016-08-23T02:50:44.820Z,16.44
2016-08-23T02:51:57.798Z,16.39
2016-08-23T02:53:10.779Z,16.39
2016-08-23T02:54:23.759Z,16.42
2016-08-23T02:55:36.943Z,16.52
2016-08-23T02:56:49.923Z,16.4
2016-08-23T02:58:02.892Z,16.4
2016-08-23T02:59:15.869Z,16.52
2016-08-23T03:00:28.855Z,16.44
2016-08-23T03:01:42.030Z,16.47
2016-08-23T03:02:55.010Z,16.51
2016-08-23T03:04:08.387Z,16.51
2016-08-23T03:05:21.367Z,16.57
2016-08-23T03:06:34.358Z,16.52
2016-08-23T03:07:47.348Z,16.52
2016-08-23T03:09:00.536Z,16.55
2016-08-23T03:10:13.519Z,16.52
2016-08-23T03:11:26.503Z,16.52
2016-08-23T03:12:39.481Z,16.47
2016-08-23T03:13:52.487Z,16.52
2016-08-23T03:15:05.676Z,16.49
2016-08-23T03:16:18.915Z,16.52
2016-08-23T03:17:31.892Z,16.57
2016-08-23T03:18:44.875Z,16.51
2016-08-23T03:19:57.856Z,16.49
2016-08-23T03:21:10.838Z,16.54
2016-08-23T03:22:23.851Z,16.42
2016-08-23T03:23:36.825Z,16.54
2016-08-23T03:24:50.008Z,16.45
2016-08-23T03:26:03.188Z,16.51
2016-08-23T03:27:16.165Z,16.51
2016-08-23T03:28:29.346Z,16.52
2016-08-23T03:29:42.322Z,16.55
2016-08-23T03:30:55.503Z,16.48
2016-08-23T03:32:08.481Z,16.47
2016-08-23T03:33:21.462Z,16.39
2016-08-23T03:34:34.445Z,16.39
2016-08-23T03:35:47.425Z,16.48
2016-08-23T03:37:00.603Z,16.42
2016-08-23T03:38:13.581Z,16.47
2016-08-23T03:39:26.553Z,16.44
2016-08-23T03:40:39.538Z,16.42
2016-08-23T03:41:52.521Z,16.44
2016-08-23T03:43:05.520Z,16.42
2016-08-23T03:44:18.698Z,16.37
2016-08-23T03:45:31.880Z,16.39
2016-08-23T03:46:44.857Z,16.45
2016-08-23T03:47:57.835Z,16.42
2016-08-23T03:49:11.022Z,16.42
2016-08-23T03:50:23.999Z,16.37
2016-08-23T03:51:37.181Z,16.39
2016-08-23T03:52:50.362Z,16.3
2016-08-23T03:54:03.351Z,16.42
2016-08-23T03:55:16.326Z,16.33
2016-08-23T03:56:29.301Z,16.29
2016-08-23T03:57:42.277Z,16.3
2016-08-23T03:58:55.250Z,16.21
2016-08-23T04:00:08.223Z,16.17
2016-08-23T04:01:21.406Z,16.17
2016-08-23T04:02:34.414Z,16.08
2016-08-23T04:03:47.398Z,16.07
2016-08-23T04:05:00.398Z,16.06
2016-08-23T04:06:13.365Z,16.11
2016-08-23T04:07:26.343Z,16.04
2016-08-23T04:08:39.328Z,15.99
2016-08-23T04:09:52.308Z,16.02
2016-08-23T04:11:05.486Z,15.99
2016-08-23T04:12:18.464Z,15.95
2016-08-23T04:13:31.442Z,15.95
2016-08-23T04:14:44.421Z,15.93
2016-08-23T04:15:57.405Z,15.96
2016-08-23T04:17:10.434Z,15.92
2016-08-23T04:18:23.416Z,15.88
2016-08-23T04:19:36.397Z,15.86
2016-08-23T04:20:49.382Z,15.86
2016-08-23T04:22:02.369Z,15.89
2016-08-23T04:23:15.548Z,15.88
2016-08-23T04:24:28.540Z,15.89
2016-08-23T04:25:41.522Z,15.84
2016-08-23T04:26:54.501Z,15.84
2016-08-23T04:28:07.479Z,15.74
2016-08-23T04:29:20.458Z,15.73
2016-08-23T04:30:33.850Z,15.68
2016-08-23T04:31:46.836Z,15.8
2016-08-23T04:32:59.822Z,15.8
2016-08-23T04:34:12.796Z,15.68
2016-08-23T04:35:25.781Z,15.68
2016-08-23T04:36:38.761Z,15.67
2016-08-23T04:37:51.746Z,15.65
2016-08-23T04:39:04.726Z,15.62
2016-08-23T04:40:17.702Z,15.67
2016-08-23T04:41:30.701Z,15.7
2016-08-23T04:42:43.673Z,15.59
2016-08-23T04:43:56.651Z,15.68
2016-08-23T04:45:09.630Z,15.7
2016-08-23T04:46:22.639Z,15.7
2016-08-23T04:47:35.616Z,15.65
2016-08-23T04:48:48.595Z,15.65
2016-08-23T04:50:01.587Z,15.6
2016-08-23T04:51:14.571Z,15.6
2016-08-23T04:52:27.553Z,15.6
2016-08-23T04:53:40.537Z,15.49
2016-08-23T04:54:53.718Z,15.53
2016-08-23T04:56:06.708Z,15.55
2016-08-23T04:57:19.688Z,15.51
2016-08-23T04:58:32.662Z,15.55
2016-08-23T04:59:45.645Z,15.43
2016-08-23T05:00:58.840Z,15.53
2016-08-23T05:02:11.837Z,15.58
2016-08-23T05:03:24.826Z,15.53
2016-08-23T05:04:37.802Z,15.65
2016-08-23T05:05:50.798Z,15.65
2016-08-23T05:07:03.790Z,15.62
2016-08-23T05:08:16.973Z,15.75
2016-08-23T05:09:29.941Z,15.73
2016-08-23T05:10:43.124Z,15.8
2016-08-23T05:11:56.109Z,15.8
2016-08-23T05:13:09.293Z,15.84
2016-08-23T05:14:22.475Z,15.88
2016-08-23T05:15:35.473Z,15.84
2016-08-23T05:16:48.467Z,15.93
2016-08-23T05:18:01.490Z,15.95
2016-08-23T05:19:14.674Z,16.11
2016-08-23T05:20:27.679Z,16.08
2016-08-23T05:21:40.666Z,16.13
2016-08-23T05:22:53.644Z,16.17
2016-08-23T05:24:06.631Z,16.29
2016-08-23T05:25:19.609Z,16.27
2016-08-23T05:26:32.592Z,16.21
2016-08-23T05:27:45.576Z,16.3
2016-08-23T05:28:58.563Z,16.3
2016-08-23T05:30:11.539Z,16.37
2016-08-23T05:31:24.522Z,16.32
2016-08-23T05:32:37.497Z,16.39
2016-08-23T05:33:50.682Z,16.39
2016-08-23T05:35:03.662Z,16.44
2016-08-23T05:36:16.639Z,16.39
2016-08-23T05:37:29.658Z,16.36
2016-08-23T05:38:42.639Z,16.44
2016-08-23T05:39:55.819Z,16.42
2016-08-23T05:41:08.799Z,16.44
2016-08-23T05:42:21.837Z,16.55
2016-08-23T05:43:35.022Z,16.63
2016-08-23T05:44:48.211Z,16.63
2016-08-23T05:46:01.593Z,16.69
2016-08-23T05:47:14.565Z,16.67
2016-08-23T05:48:27.753Z,16.62
2016-08-23T05:49:40.732Z,16.66
2016-08-23T05:50:53.715Z,16.63
2016-08-23T05:52:06.893Z,16.63
2016-08-23T05:53:19.882Z,16.63
2016-08-23T05:54:32.859Z,16.67
2016-08-23T05:55:45.849Z,16.63
2016-08-23T05:56:58.825Z,16.62
2016-08-23T05:58:11.822Z,16.59
2016-08-23T05:59:24.802Z,16.58
2016-08-23T06:00:37.786Z,16.7
2016-08-23T06:01:50.766Z,16.69
2016-08-23T06:03:03.748Z,16.72
2016-08-23T06:04:16.933Z,16.77
2016-08-23T06:05:29.921Z,16.69
2016-08-23T06:06:42.904Z,16.73
2016-08-23T06:07:56.093Z,16.76
2016-08-23T06:09:09.086Z,16.8
2016-08-23T06:10:22.317Z,16.77
2016-08-23T06:11:35.297Z,16.85
2016-08-23T06:12:48.273Z,16.82
2016-08-23T06:14:01.256Z,16.84
2016-08-23T06:15:14.236Z,16.91
2016-08-23T06:16:27.214Z,16.92
2016-08-23T06:17:40.201Z,16.94
2016-08-23T06:18:53.233Z,17
2016-08-23T06:20:06.222Z,17.03
2016-08-23T06:21:19.210Z,17.06
2016-08-23T06:22:32.407Z,17.07
2016-08-23T06:23:45.397Z,17.1
2016-08-23T06:24:58.389Z,17.07
2016-08-23T06:26:11.377Z,17.24
2016-08-23T06:27:24.378Z,17.3
2016-08-23T06:28:37.370Z,17.35
2016-08-23T06:29:50.365Z,17.39
2016-08-23T06:31:03.349Z,17.45
2016-08-23T06:32:16.335Z,17.52
2016-08-23T06:33:29.318Z,17.52
2016-08-23T06:34:42.307Z,17.63
2016-08-23T06:35:55.299Z,17.76
2016-08-23T06:37:08.308Z,17.68
2016-08-23T06:38:21.297Z,17.88
2016-08-23T06:39:34.274Z,18.08
2016-08-23T06:40:47.264Z,18.49
2016-08-23T06:42:00.446Z,19.09
2016-08-23T06:43:13.424Z,19.83
2016-08-23T06:44:26.417Z,20.4
2016-08-23T06:45:39.395Z,21.08
2016-08-23T06:46:52.389Z,21.68
2016-08-23T06:48:05.373Z,22.16
2016-08-23T06:49:18.361Z,22.64
2016-08-23T06:50:31.350Z,22.97
2016-08-23T06:51:44.335Z,23.38
2016-08-23T06:52:57.326Z,23.75
2016-08-23T06:54:10.312Z,24.22
2016-08-23T06:55:23.314Z,24.51
2016-08-23T06:56:37.399Z,24.75
2016-08-23T06:57:51.223Z,25.08
2016-08-23T06:59:04.258Z,25.37
2016-08-23T07:00:17.441Z,25.57
2016-08-23T07:01:36.129Z,25.86
2016-08-23T07:02:49.486Z,26.12
2016-08-23T07:04:02.852Z,26.23
2016-08-23T07:05:16.302Z,26.47
2016-08-23T07:06:29.322Z,26.42
2016-08-23T07:07:42.570Z,26.56
2016-08-23T07:08:55.566Z,26.86
2016-08-23T07:10:08.567Z,26.94
2016-08-23T07:11:21.563Z,27.18
2016-08-23T07:12:34.564Z,27.41
2016-08-23T07:13:47.556Z,27.66
2016-08-23T07:15:00.566Z,27.86
2016-08-23T07:16:15.787Z,28.09
2016-08-23T07:17:29.236Z,28.17
2016-08-23T07:18:42.246Z,27.89
2016-08-23T07:19:55.317Z,27.9
2016-08-23T07:21:08.384Z,27.87
2016-08-23T07:22:21.582Z,27.89
2016-08-23T07:23:34.579Z,28.12
2016-08-23T07:24:47.578Z,28.3
2016-08-23T07:26:00.799Z,28.68
2016-08-23T07:27:13.812Z,28.95
2016-08-23T07:28:27.018Z,29.17
2016-08-23T07:29:40.023Z,29.54
2016-08-23T07:30:53.234Z,29.69
2016-08-23T07:32:06.383Z,29.73
2016-08-23T07:33:19.424Z,29.69
2016-08-23T07:34:32.440Z,29.87
2016-08-23T07:35:45.631Z,29.98
2016-08-23T07:36:58.629Z,30.19
2016-08-23T07:38:11.624Z,30.47
2016-08-23T07:39:24.638Z,30.52
2016-08-23T07:40:37.660Z,30.66
2016-08-23T07:41:50.868Z,30.75
2016-08-23T07:43:03.869Z,30.89
2016-08-23T07:44:16.865Z,30.88
2016-08-23T07:45:30.094Z,30.96
2016-08-23T07:46:43.107Z,30.93
2016-08-23T07:47:56.116Z,30.94
2016-08-23T07:49:09.121Z,30.91
2016-08-23T07:50:22.329Z,30.96
2016-08-23T07:51:35.328Z,31.07
2016-08-23T07:52:48.344Z,31.23
2016-08-23T07:54:01.349Z,31.22
2016-08-23T07:55:14.394Z,31.28
2016-08-23T07:56:27.400Z,31.26
2016-08-23T07:57:40.403Z,31.21
2016-08-23T07:58:53.408Z,31.18
2016-08-23T08:00:06.419Z,31.45
2016-08-23T08:01:19.442Z,31.52
2016-08-23T08:02:32.445Z,31.52
2016-08-23T08:03:45.443Z,31.59
2016-08-23T08:04:58.533Z,31.81
2016-08-23T08:06:11.741Z,31.93
2016-08-23T08:07:24.740Z,32.03
2016-08-23T08:08:37.752Z,32.2
2016-08-23T08:09:50.752Z,32.37
2016-08-23T08:11:03.767Z,32.56
2016-08-23T08:12:16.792Z,32.57
2016-08-23T08:13:29.795Z,32.9
2016-08-23T08:14:42.797Z,33.16
2016-08-23T08:15:55.835Z,33.17
2016-08-23T08:17:08.851Z,33.17
2016-08-23T08:18:21.859Z,32.8
2016-08-23T08:19:35.113Z,32.45
2016-08-23T08:20:48.123Z,32.23
2016-08-23T08:22:01.137Z,31.91
2016-08-23T08:23:14.150Z,31.7
2016-08-23T08:24:27.169Z,31.38
2016-08-23T08:25:40.182Z,31.43
2016-08-23T08:26:53.387Z,31.45
2016-08-23T08:28:06.387Z,31.49
2016-08-23T08:29:19.391Z,31.6
2016-08-23T08:30:32.407Z,31.75
2016-08-23T08:31:45.410Z,31.88
2016-08-23T08:32:58.413Z,32.09
2016-08-23T08:34:11.407Z,32.31
2016-08-23T08:35:24.420Z,32.53
2016-08-23T08:36:37.427Z,32.9
2016-08-23T08:37:50.437Z,32.91
2016-08-23T08:39:03.436Z,33.11
2016-08-23T08:40:16.460Z,33.29
2016-08-23T08:41:29.465Z,33.43
2016-08-23T08:42:42.466Z,33.43
2016-08-23T08:43:55.475Z,33.29
2016-08-23T08:45:08.679Z,33.28
2016-08-23T08:46:21.881Z,33.23
2016-08-23T08:47:35.091Z,33.4
2016-08-23T08:48:48.095Z,33.61
2016-08-23T08:50:01.106Z,33.61
2016-08-23T08:51:14.316Z,33.75
2016-08-23T08:52:27.324Z,33.62
2016-08-23T08:53:40.338Z,33.65
2016-08-23T08:54:53.346Z,33.58
2016-08-23T08:56:06.355Z,33.66
2016-08-23T08:57:19.360Z,33.71
2016-08-23T08:58:32.378Z,33.61
2016-08-23T08:59:45.382Z,33.58
2016-08-23T09:00:58.396Z,33.52
2016-08-23T09:02:11.414Z,33.37
2016-08-23T09:03:24.431Z,33.39
2016-08-23T09:04:37.443Z,33.48
2016-08-23T09:05:50.496Z,33.56
2016-08-23T09:07:03.505Z,33.58
2016-08-23T09:08:16.515Z,33.63
2016-08-23T09:09:29.521Z,33.77
2016-08-23T09:10:42.528Z,33.87
2016-08-23T09:11:55.530Z,33.77
2016-08-23T09:13:08.540Z,33.95
2016-08-23T09:14:21.752Z,34.14
2016-08-23T09:15:34.757Z,34.21
2016-08-23T09:16:47.762Z,34.3
2016-08-23T09:18:00.777Z,34.45
2016-08-23T09:19:13.795Z,34.74
2016-08-23T09:20:26.853Z,34.74
2016-08-23T09:21:40.069Z,35.01
2016-08-23T09:22:53.085Z,35.11
2016-08-23T09:24:06.103Z,35.05
2016-08-23T09:25:19.110Z,35.05
2016-08-23T09:26:32.311Z,35.16
2016-08-23T09:27:45.310Z,35.33
2016-08-23T09:28:58.319Z,35.16
2016-08-23T09:30:11.337Z,34.99
2016-08-23T09:31:24.335Z,34.84
2016-08-23T09:32:37.547Z,34.66
2016-08-23T09:33:50.559Z,34.59
2016-08-23T09:35:03.785Z,34.58
2016-08-23T09:36:16.998Z,34.71
2016-08-23T09:37:30.011Z,34.83
2016-08-23T09:38:43.039Z,34.89
2016-08-23T09:39:56.271Z,34.72
2016-08-23T09:41:09.281Z,34.72
2016-08-23T09:42:22.302Z,34.86
2016-08-23T09:43:35.309Z,34.86
2016-08-23T09:44:48.312Z,34.96
2016-08-23T09:46:01.320Z,34.96
2016-08-23T09:47:14.332Z,34.86
2016-08-23T09:48:27.332Z,34.96
2016-08-23T09:49:40.351Z,35.05
2016-08-23T09:50:53.372Z,35.13
2016-08-23T09:52:06.580Z,35.12
2016-08-23T09:53:19.586Z,35.11
2016-08-23T09:54:32.790Z,35.12
2016-08-23T09:55:46.358Z,35.02
2016-08-23T09:56:59.367Z,34.9
2016-08-23T09:58:12.370Z,34.89
2016-08-23T09:59:25.379Z,34.89
2016-08-23T10:00:38.787Z,34.94
2016-08-23T10:01:51.786Z,35.08
2016-08-23T10:03:04.794Z,35.11
2016-08-23T10:04:17.799Z,35.06
2016-08-23T10:05:30.800Z,35.02
2016-08-23T10:06:43.809Z,34.93
2016-08-23T10:07:57.023Z,34.9
2016-08-23T10:09:10.025Z,34.84
2016-08-23T10:10:23.041Z,34.87
2016-08-23T10:11:36.255Z,35.08
2016-08-23T10:12:49.263Z,35.11
2016-08-23T10:14:02.275Z,35.23
2016-08-23T10:15:15.485Z,35.33
2016-08-23T10:16:28.497Z,35.5
2016-08-23T10:17:41.515Z,35.68
2016-08-23T10:18:54.535Z,35.74
2016-08-23T10:20:07.544Z,35.84
2016-08-23T10:21:20.600Z,35.83
2016-08-23T10:22:33.614Z,35.76
2016-08-23T10:23:46.625Z,35.72
2016-08-23T10:25:00.289Z,35.62
2016-08-23T10:26:13.790Z,35.5
2016-08-23T10:27:28.073Z,35.53
2016-08-23T10:28:41.099Z,35.61
2016-08-23T10:29:54.304Z,35.69
2016-08-23T10:31:07.314Z,35.64
2016-08-23T10:32:20.313Z,35.43
2016-08-23T10:33:33.329Z,35.6
2016-08-23T10:34:46.368Z,35.57
2016-08-23T10:35:59.576Z,35.52
2016-08-23T10:37:12.578Z,35.55
2016-08-23T10:38:25.578Z,35.65
2016-08-23T10:39:38.580Z,35.65
2016-08-23T10:40:51.594Z,35.6
2016-08-23T10:42:04.597Z,35.42
2016-08-23T10:43:17.594Z,35.38
2016-08-23T10:44:30.611Z,35.45
2016-08-23T10:45:43.625Z,35.38
2016-08-23T10:46:56.639Z,35.38
2016-08-23T10:48:09.847Z,35.52
2016-08-23T10:49:22.855Z,35.52
2016-08-23T10:50:36.063Z,35.67
2016-08-23T10:51:49.083Z,35.61
2016-08-23T10:53:02.098Z,35.53
2016-08-23T10:54:15.336Z,35.69
2016-08-23T10:55:28.344Z,35.71
2016-08-23T10:56:41.349Z,35.69
2016-08-23T10:57:54.557Z,35.57
2016-08-23T10:59:07.572Z,35.13
2016-08-23T11:00:20.593Z,34.86
2016-08-23T11:01:33.607Z,34.78
2016-08-23T11:02:46.621Z,34.93
2016-08-23T11:03:59.838Z,35.06
2016-08-23T11:05:12.857Z,35.11
2016-08-23T11:06:25.863Z,35.27
2016-08-23T11:07:38.869Z,35.28
2016-08-23T11:08:51.876Z,35.38
2016-08-23T11:10:05.097Z,35.45
2016-08-23T11:11:18.302Z,35.62
2016-08-23T11:12:31.318Z,35.65
2016-08-23T11:13:44.337Z,35.55
2016-08-23T11:14:57.331Z,35.5
2016-08-23T11:16:10.542Z,35.35
2016-08-23T11:17:23.545Z,35.42
2016-08-23T11:18:36.547Z,35.33
2016-08-23T11:19:49.543Z,35.31
2016-08-23T11:21:02.544Z,35.39
2016-08-23T11:22:15.600Z,35.28
2016-08-23T11:23:28.605Z,35.35
2016-08-23T11:24:41.614Z,35.33
2016-08-23T11:25:54.616Z,35.43
2016-08-23T11:27:07.613Z,35.42
2016-08-23T11:28:20.857Z,35.46
2016-08-23T11:29:33.861Z,35.35
2016-08-23T11:30:46.860Z,35.45
2016-08-23T11:32:00.080Z,35.46
2016-08-23T11:33:13.097Z,35.38
2016-08-23T11:34:26.107Z,35.39
2016-08-23T11:35:39.307Z,35.33
2016-08-23T11:36:52.368Z,35.31
2016-08-23T11:38:05.368Z,35.31
2016-08-23T11:39:18.375Z,35.24
2016-08-23T11:40:31.400Z,35.05
2016-08-23T11:41:44.413Z,35.05
2016-08-23T11:42:57.416Z,35.13
2016-08-23T11:44:10.423Z,35.04
2016-08-23T11:45:23.451Z,35.04
2016-08-23T11:46:36.487Z,34.97
2016-08-23T11:47:49.491Z,35.04
2016-08-23T11:49:02.500Z,35.09
2016-08-23T11:50:15.516Z,35.24
2016-08-23T11:51:28.511Z,35.31
2016-08-23T11:52:41.523Z,35.34
2016-08-23T11:53:54.544Z,35.35
2016-08-23T11:55:07.550Z,35.46
2016-08-23T11:56:20.545Z,35.6
2016-08-23T11:57:33.557Z,35.55
2016-08-23T11:58:46.575Z,35.62
2016-08-23T11:59:59.603Z,35.55
2016-08-23T12:01:12.613Z,35.49
2016-08-23T12:02:25.616Z,35.24
2016-08-23T12:03:38.620Z,35.27
2016-08-23T12:04:51.833Z,35.39
2016-08-23T12:06:05.064Z,35.4
2016-08-23T12:07:18.078Z,35.38
2016-08-23T12:08:31.084Z,35.42
2016-08-23T12:09:44.096Z,35.62
2016-08-23T12:10:57.103Z,35.57
2016-08-23T12:12:10.106Z,35.45
2016-08-23T12:13:23.532Z,35.4
2016-08-23T12:14:36.740Z,35.4
2016-08-23T12:15:49.754Z,35.08
2016-08-23T12:17:02.766Z,35.04
2016-08-23T12:18:15.767Z,34.81
2016-08-23T12:19:28.766Z,34.32
2016-08-23T12:20:41.774Z,34.4
2016-08-23T12:21:54.983Z,34.32
2016-08-23T12:23:08.049Z,34.4
2016-08-23T12:24:21.064Z,34.27
2016-08-23T12:25:34.067Z,34.24
2016-08-23T12:26:47.075Z,34.24
2016-08-23T12:28:00.075Z,34.27
2016-08-23T12:29:13.083Z,34.21
2016-08-23T12:30:26.086Z,34.29
2016-08-23T12:31:39.094Z,34.24
2016-08-23T12:32:52.104Z,34.3
2016-08-23T12:34:05.249Z,34.39
2016-08-23T12:35:18.448Z,34.26
2016-08-23T12:36:31.645Z,34.39
2016-08-23T12:37:44.869Z,34.26
2016-08-23T12:38:57.869Z,34.22
2016-08-23T12:40:10.873Z,34.18
2016-08-23T12:41:23.880Z,34.19
2016-08-23T12:42:36.884Z,34.11
2016-08-23T12:43:52.281Z,34.08
2016-08-23T12:45:07.753Z,34.12
2016-08-23T12:46:21.312Z,33.95
2016-08-23T12:47:34.321Z,33.85
2016-08-23T12:48:47.325Z,33.85
2016-08-23T12:50:00.319Z,33.96
2016-08-23T12:51:13.320Z,34.03
2016-08-23T12:52:26.315Z,33.99
2016-08-23T12:53:39.528Z,33.85
2016-08-23T12:54:52.523Z,33.61
2016-08-23T12:56:05.527Z,33.46
2016-08-23T12:57:18.529Z,33.37
2016-08-23T12:58:31.709Z,32.94
2016-08-23T12:59:44.910Z,32.69
2016-08-23T13:00:57.913Z,32.59
2016-08-23T13:02:10.911Z,32.53
2016-08-23T13:03:23.921Z,32.65
2016-08-23T13:04:36.929Z,32.71
2016-08-23T13:05:49.932Z,32.79
2016-08-23T13:07:02.941Z,32.9
2016-08-23T13:08:15.945Z,32.94
2016-08-23T13:09:28.941Z,32.96
2016-08-23T13:10:41.940Z,32.9
2016-08-23T13:11:54.944Z,32.75
2016-08-23T13:13:07.970Z,32.79
2016-08-23T13:14:21.373Z,32.68
2016-08-23T13:15:34.394Z,32.64
2016-08-23T13:16:47.397Z,32.46
2016-08-23T13:18:00.393Z,32.37
2016-08-23T13:19:13.394Z,32.35
2016-08-23T13:20:26.402Z,32.23
2016-08-23T13:21:39.796Z,32.03
2016-08-23T13:22:52.799Z,31.72
2016-08-23T13:24:05.846Z,31.6
2016-08-23T13:25:18.854Z,31.44
2016-08-23T13:26:31.855Z,31.33
2016-08-23T13:27:44.854Z,31.41
2016-08-23T13:28:57.848Z,31.43
2016-08-23T13:30:10.853Z,31.5
2016-08-23T13:31:23.849Z,31.45
2016-08-23T13:32:36.853Z,31.44
2016-08-23T13:33:49.849Z,31.25
2016-08-23T13:35:02.839Z,31.01
2016-08-23T13:36:15.834Z,30.99
2016-08-23T13:37:28.844Z,30.77
2016-08-23T13:38:41.850Z,30.69
2016-08-23T13:39:54.840Z,30.79
2016-08-23T13:41:08.038Z,30.85
2016-08-23T13:42:21.036Z,30.89
2016-08-23T13:43:34.031Z,30.89
2016-08-23T13:44:47.049Z,30.96
2016-08-23T13:46:00.056Z,30.93
2016-08-23T13:47:13.059Z,30.97
2016-08-23T13:48:26.299Z,30.91
2016-08-23T13:49:39.309Z,30.89
2016-08-23T13:50:52.316Z,30.85
2016-08-23T13:52:05.716Z,30.84
2016-08-23T13:53:18.732Z,30.73
2016-08-23T13:54:31.730Z,30.77
2016-08-23T13:55:44.751Z,30.67
2016-08-23T13:56:57.745Z,30.64
2016-08-23T13:58:10.944Z,30.6
2016-08-23T13:59:23.944Z,30.66
2016-08-23T14:00:36.935Z,30.64
2016-08-23T14:01:49.945Z,30.51
2016-08-23T14:03:02.950Z,30.48
2016-08-23T14:04:15.950Z,30.45
2016-08-23T14:05:28.938Z,30.44
2016-08-23T14:06:41.936Z,30.44
2016-08-23T14:07:54.942Z,30.42
2016-08-23T14:09:07.938Z,30.4
2016-08-23T14:10:20.936Z,30.45
2016-08-23T14:11:33.929Z,30.6
2016-08-23T14:12:46.924Z,30.66
2016-08-23T14:13:59.938Z,30.67
2016-08-23T14:15:12.927Z,30.71
2016-08-23T14:16:26.129Z,30.81
2016-08-23T14:17:39.129Z,30.86
2016-08-23T14:18:52.122Z,30.86
2016-08-23T14:20:05.129Z,30.82
2016-08-23T14:21:18.135Z,30.84
2016-08-23T14:22:31.143Z,30.88
2016-08-23T14:23:44.339Z,30.91
2016-08-23T14:24:57.383Z,30.94
2016-08-23T14:26:10.383Z,30.94
2016-08-23T14:27:23.377Z,30.93
2016-08-23T14:28:36.363Z,30.99
2016-08-23T14:29:49.358Z,30.94
2016-08-23T14:31:02.355Z,30.73
2016-08-23T14:32:15.363Z,30.67
2016-08-23T14:33:28.358Z,30.67
2016-08-23T14:34:41.364Z,30.57
2016-08-23T14:35:54.364Z,30.63
2016-08-23T14:37:07.362Z,30.37
2016-08-23T14:38:20.367Z,30.34
2016-08-23T14:39:33.376Z,30.29
2016-08-23T14:40:46.374Z,30.25
2016-08-23T14:41:59.374Z,30.24
2016-08-23T14:43:12.384Z,30.16
2016-08-23T14:44:25.386Z,30.14
2016-08-23T14:45:38.382Z,30.19
2016-08-23T14:46:51.380Z,30.24
2016-08-23T14:48:04.408Z,30.11
2016-08-23T14:49:17.401Z,30.13
2016-08-23T14:50:30.398Z,30.09
2016-08-23T14:51:43.400Z,29.87
2016-08-23T14:52:56.400Z,29.77
2016-08-23T14:54:09.401Z,29.81
2016-08-23T14:55:22.609Z,29.76
2016-08-23T14:56:35.600Z,29.79
2016-08-23T14:57:48.602Z,29.65
2016-08-23T14:59:01.591Z,29.52
2016-08-23T15:00:14.596Z,29.51
2016-08-23T15:01:27.582Z,29.35
2016-08-23T15:02:40.788Z,29.33
2016-08-23T15:03:53.797Z,29.38
2016-08-23T15:05:06.798Z,29.24
2016-08-23T15:06:19.795Z,29.17
2016-08-23T15:07:32.803Z,29.21
2016-08-23T15:08:45.797Z,29.26
2016-08-23T15:09:58.790Z,29.13
2016-08-23T15:11:11.789Z,29.08
2016-08-23T15:12:24.779Z,28.83
2016-08-23T15:13:37.991Z,28.72
2016-08-23T15:14:51.179Z,28.73
2016-08-23T15:16:04.181Z,28.72
2016-08-23T15:17:17.379Z,28.68
2016-08-23T15:18:30.383Z,28.79
2016-08-23T15:19:43.386Z,28.73
2016-08-23T15:20:56.382Z,28.64
2016-08-23T15:22:09.385Z,28.68
2016-08-23T15:23:22.370Z,28.68
2016-08-23T15:24:35.565Z,28.61
2016-08-23T15:25:48.862Z,28.7
2016-08-23T15:27:01.856Z,28.67
2016-08-23T15:28:15.068Z,28.67
2016-08-23T15:29:28.061Z,28.55
2016-08-23T15:30:41.063Z,28.67
2016-08-23T15:31:54.055Z,28.58
2016-08-23T15:33:07.050Z,28.6
2016-08-23T15:34:20.044Z,28.57
2016-08-23T15:35:33.230Z,28.64
2016-08-23T15:36:46.437Z,28.64
2016-08-23T15:37:59.438Z,28.7
2016-08-23T15:39:12.442Z,28.68
2016-08-23T15:40:25.440Z,28.63
2016-08-23T15:41:38.440Z,28.67
2016-08-23T15:42:51.638Z,28.57